Time;durP1;ratioP1;P1;durP2;ratioP2;P2;SDS_P1;SDS_P2;PMS_P1;PMS_P2;Temp;Humidity;BMP_temperature;BMP_pressure;BME280_temperature;BME280_humidity;BME280_pressure;Samples;Min_cycle;Max_cycle;Signal;HPM_P1;HPM_P2
2023/10/30 00:00:08;;;;;;;;;;;;;;;8.95;100.00;99571.31;5041996;28;19933;-77
2023/10/30 00:02:57;;;;;;;;;;;;;;;8.95;100.00;99573.94;5038653;28;20480;-81
2023/10/30 00:05:42;;;;;;;;;;;;;;;8.94;100.00;99580.16;5052716;28;19993;-78
2023/10/30 00:08:28;;;;;;;;;;;;;;;8.92;100.00;99574.09;5054072;28;20454;-76
2023/10/30 00:11:14;;;;;;;;;;;;;;;8.91;100.00;99573.28;5049009;28;20875;-78
2023/10/30 00:14:00;;;;;;;;;;;;;;;8.89;100.00;99588.34;5035862;28;19924;-80
2023/10/30 00:16:46;;;;;;;;;;;;;;;8.88;100.00;99593.72;5054289;28;19975;-79
2023/10/30 00:19:32;;;;;;;;;;;;;;;8.87;100.00;99594.66;5036485;28;19998;-81
2023/10/30 00:22:45;;;;;;;;;;;;;;;8.84;100.00;99587.78;5052947;28;20391;-78
2023/10/30 00:25:31;;;;;;;;;;;;;;;8.81;100.00;99586.16;5053881;28;19921;-79
2023/10/30 00:28:17;;;;;;;;;;;;;;;8.81;100.00;99587.94;5023584;28;19924;-78
2023/10/30 00:31:03;;;;;;;;;;;;;;;8.80;100.00;99589.75;5052462;28;20019;-78
2023/10/30 00:33:49;;;;;;;;;;;;;;;8.78;100.00;99593.41;5054463;28;19936;-79
2023/10/30 00:36:34;;;;;;;;;;;;;;;8.77;100.00;99604.91;5034300;28;20031;-78
2023/10/30 00:39:20;;;;;;;;;;;;;;;8.76;100.00;99609.31;5034630;28;19929;-78
2023/10/30 00:42:06;;;;;;;;;;;;;;;8.74;100.00;99607.69;5034643;28;19928;-78
2023/10/30 00:44:54;;;;;;;;;;;;;;;8.74;100.00;99612.97;5053819;28;19928;-78
2023/10/30 00:47:42;;;;;;;;;;;;;;;8.73;100.00;99613.94;5024142;28;19929;-78
2023/10/30 00:50:28;;;;;;;;;;;;;;;8.73;100.00;99604.22;5014428;28;20711;-81
2023/10/30 00:53:13;;;;;;;;;;;;;;;8.73;100.00;99606.00;5019297;28;20019;-78
2023/10/30 00:55:59;;;;;;;;;;;;;;;8.73;100.00;99609.50;5032613;28;20352;-76
2023/10/30 00:58:51;;;;;;;;;;;;;;;8.74;100.00;99608.56;5031171;28;20021;-78
2023/10/30 01:01:36;;;;;;;;;;;;;;;8.76;100.00;99604.03;5034349;28;19933;-78
2023/10/30 01:04:27;;;;;;;;;;;;;;;8.76;100.00;99609.31;5023708;28;19964;-78
2023/10/30 01:07:13;;;;;;;;;;;;;;;8.77;100.00;99604.91;5015624;28;19929;-79
2023/10/30 01:09:58;;;;;;;;;;;;;;;8.76;100.00;99627.78;5011943;28;19990;-81
2023/10/30 01:12:44;;;;;;;;;;;;;;;8.74;100.00;99621.75;5035529;28;19936;-77
2023/10/30 01:15:30;;;;;;;;;;;;;;;8.72;100.00;99634.16;5020928;28;19924;-82
2023/10/30 01:18:15;;;;;;;;;;;;;;;8.70;100.00;99630.78;5032216;28;19925;-79
2023/10/30 01:21:01;;;;;;;;;;;;;;;8.70;100.00;99622.88;5034459;28;19979;-78
2023/10/30 01:23:47;;;;;;;;;;;;;;;8.69;100.00;99622.03;5019389;28;19931;-78
2023/10/30 01:26:33;;;;;;;;;;;;;;;8.69;100.00;99637.00;5018152;28;20278;-79
2023/10/30 01:29:21;;;;;;;;;;;;;;;8.68;100.00;99645.84;5034179;28;19936;-78
2023/10/30 01:32:07;;;;;;;;;;;;;;;8.66;100.00;99653.03;4990868;28;19939;-78
2023/10/30 01:34:53;;;;;;;;;;;;;;;8.65;100.00;99661.84;5031972;28;20372;-79
2023/10/30 01:37:39;;;;;;;;;;;;;;;8.65;100.00;99659.22;5032110;28;19939;-77
2023/10/30 01:40:24;;;;;;;;;;;;;;;8.61;100.00;99655.91;5004170;28;21540;-77
2023/10/30 01:43:10;;;;;;;;;;;;;;;8.60;100.00;99658.63;5014207;28;20283;-78
2023/10/30 01:45:56;;;;;;;;;;;;;;;8.54;100.00;99663.31;5032158;28;20492;-77
2023/10/30 01:48:42;;;;;;;;;;;;;;;8.50;100.00;99669.66;5050201;28;19956;-82
2023/10/30 01:51:27;;;;;;;;;;;;;;;8.49;100.00;99664.50;5037335;28;19995;-78
2023/10/30 01:54:31;;;;;;;;;;;;;;;8.47;100.00;99675.13;5057089;28;20545;-80
2023/10/30 01:57:23;;;;;;;;;;;;;;;8.46;100.00;99665.50;5054239;28;20185;-77
2023/10/30 02:00:09;;;;;;;;;;;;;;;8.46;100.00;99670.78;5057286;28;20537;-78
2023/10/30 02:02:55;;;;;;;;;;;;;;;8.46;100.00;99670.78;5038502;28;20043;-78
2023/10/30 02:05:41;;;;;;;;;;;;;;;8.47;100.00;99672.47;5064699;28;19920;-78
2023/10/30 02:08:29;;;;;;;;;;;;;;;8.45;100.00;99669.09;5041746;28;20386;-78
2023/10/30 02:11:14;;;;;;;;;;;;;;;8.43;100.00;99673.56;5041159;28;19925;-77
2023/10/30 02:14:00;;;;;;;;;;;;;;;8.43;100.00;99665.66;5057341;28;19936;-78
2023/10/30 02:16:46;;;;;;;;;;;;;;;8.42;100.00;99671.88;5038476;28;19935;-82
2023/10/30 02:19:31;;;;;;;;;;;;;;;8.41;100.00;99665.72;5058175;28;20371;-78
2023/10/30 02:22:17;;;;;;;;;;;;;;;8.39;100.00;99672.88;5042616;28;19929;-77
2023/10/30 02:25:05;;;;;;;;;;;;;;;8.39;100.00;99675.53;5055176;28;19936;-77
2023/10/30 02:27:54;;;;;;;;;;;;;;;8.39;100.00;99674.69;5051657;28;19927;-78
2023/10/30 02:30:39;;;;;;;;;;;;;;;8.38;100.00;99680.88;5054060;28;19928;-77
2023/10/30 02:33:25;;;;;;;;;;;;;;;8.37;100.00;99681.81;5056212;28;20469;-79
2023/10/30 02:36:30;;;;;;;;;;;;;;;8.36;100.00;99686.25;5006698;28;20416;-78
2023/10/30 02:39:16;;;;;;;;;;;;;;;8.35;100.00;99684.56;5015240;28;20889;-82
2023/10/30 02:42:02;;;;;;;;;;;;;;;8.31;100.00;99683.00;5016764;28;19937;-80
2023/10/30 02:44:48;;;;;;;;;;;;;;;8.29;100.00;99679.63;5017338;28;21532;-79
2023/10/30 02:47:37;;;;;;;;;;;;;;;8.26;100.00;99683.28;5011683;28;19952;-78
2023/10/30 02:50:23;;;;;;;;;;;;;;;8.22;100.00;99684.34;5015311;28;20296;-79
2023/10/30 02:53:08;;;;;;;;;;;;;;;8.19;100.00;99681.03;5000536;28;19930;-78
2023/10/30 02:55:54;;;;;;;;;;;;;;;8.15;100.00;99689.13;5014423;28;21608;-79
2023/10/30 02:58:40;;;;;;;;;;;;;;;8.11;100.00;99690.22;5018186;28;19933;-78
2023/10/30 03:01:26;;;;;;;;;;;;;;;8.07;100.00;99685.19;5001997;28;20476;-80
2023/10/30 03:04:13;;;;;;;;;;;;;;;8.00;100.00;99690.78;5001607;28;19936;-78
2023/10/30 03:06:58;;;;;;;;;;;;;;;7.95;100.00;99690.19;5032145;28;20135;-78
2023/10/30 03:09:44;;;;;;;;;;;;;;;7.92;100.00;99695.63;5044926;28;19929;-78
2023/10/30 03:12:30;;;;;;;;;;;;;;;7.88;100.00;99699.34;5059510;28;20010;-77
2023/10/30 03:15:15;;;;;;;;;;;;;;;7.87;100.00;99692.38;5056711;28;19932;-77
2023/10/30 03:18:01;;;;;;;;;;;;;;;7.83;100.00;99689.03;5043979;28;20315;-77
2023/10/30 03:20:47;;;;;;;;;;;;;;;7.81;100.00;99697.97;5057463;28;19936;-77
2023/10/30 03:23:33;;;;;;;;;;;;;;;7.79;100.00;99694.56;5039775;28;19936;-78
2023/10/30 03:26:21;;;;;;;;;;;;;;;7.75;100.00;99697.34;5056591;28;20746;-78
2023/10/30 03:29:06;;;;;;;;;;;;;;;7.72;100.00;99694.00;5056846;28;19929;-78
2023/10/30 03:31:54;;;;;;;;;;;;;;;7.69;100.00;99702.91;5058443;28;19933;-78
2023/10/30 03:34:58;;;;;;;;;;;;;;;7.65;100.00;99701.41;5017851;28;19936;-78
2023/10/30 03:37:44;;;;;;;;;;;;;;;7.62;100.00;99704.16;5006835;28;19929;-77
2023/10/30 03:40:30;;;;;;;;;;;;;;;7.58;100.00;99706.13;5019450;28;21833;-78
2023/10/30 03:43:16;;;;;;;;;;;;;;;7.58;100.00;99702.66;5001899;28;20010;-78
2023/10/30 03:46:01;;;;;;;;;;;;;;;7.59;100.00;99712.25;5011964;28;19965;-78
2023/10/30 03:49:19;;;;;;;;;;;;;;;7.59;100.00;99717.50;5013829;28;19929;-77
2023/10/30 03:52:36;;;;;;;;;;;;;;;7.59;100.00;99725.41;5015270;28;19936;-77
2023/10/30 03:55:22;;;;;;;;;;;;;;;7.57;100.00;99727.28;5014012;28;19932;-78
2023/10/30 03:58:08;;;;;;;;;;;;;;;7.59;100.00;99725.41;4997574;28;20011;-79
2023/10/30 04:00:54;;;;;;;;;;;;;;;7.60;100.00;99732.38;5012806;28;19941;-78
2023/10/30 04:03:39;;;;;;;;;;;;;;;7.62;100.00;99730.50;5013478;28;20072;-79
2023/10/30 04:06:25;;;;;;;;;;;;;;;7.64;100.00;99723.41;5033834;28;19936;-78
2023/10/30 04:09:11;;;;;;;;;;;;;;;7.65;100.00;99738.28;5053533;28;20733;-78
2023/10/30 04:11:56;;;;;;;;;;;;;;;7.68;100.00;99750.44;5036295;28;19928;-77
2023/10/30 04:14:42;;;;;;;;;;;;;;;7.73;100.00;99754.53;5034923;28;19929;-77
2023/10/30 04:17:28;;;;;;;;;;;;;;;7.79;100.00;99752.53;5050181;28;21385;-77
2023/10/30 04:20:13;;;;;;;;;;;;;;;7.85;100.00;99758.31;5054740;28;19947;-77
2023/10/30 04:22:59;;;;;;;;;;;;;;;7.92;100.00;99756.25;5054135;28;19928;-78
2023/10/30 04:25:45;;;;;;;;;;;;;;;7.98;100.00;99753.28;5054676;28;19986;-77
2023/10/30 04:28:31;;;;;;;;;;;;;;;8.03;100.00;99758.31;5040200;28;19933;-77
2023/10/30 04:31:16;;;;;;;;;;;;;;;8.07;100.00;99756.38;5057428;28;19928;-78
2023/10/30 04:34:03;;;;;;;;;;;;;;;8.09;100.00;99754.50;5058045;28;20454;-78
2023/10/30 04:36:50;;;;;;;;;;;;;;;8.09;100.00;99750.09;5061838;28;19932;-79
2023/10/30 04:39:36;;;;;;;;;;;;;;;8.10;100.00;99749.16;5062062;28;19928;-77
2023/10/30 04:42:21;;;;;;;;;;;;;;;8.10;100.00;99749.16;5056989;28;20022;-78
2023/10/30 04:45:07;;;;;;;;;;;;;;;8.08;100.00;99748.38;5059203;28;19971;-77
2023/10/30 04:47:53;;;;;;;;;;;;;;;8.06;100.00;99739.69;5059222;28;19928;-78
2023/10/30 04:50:38;;;;;;;;;;;;;;;8.05;100.00;99737.16;5045076;28;19928;-78
2023/10/30 04:53:24;;;;;;;;;;;;;;;7.99;100.00;99731.25;5061662;28;19932;-78
2023/10/30 04:56:10;;;;;;;;;;;;;;;7.95;100.00;99728.88;5040648;28;20201;-78
2023/10/30 04:58:56;;;;;;;;;;;;;;;7.90;100.00;99730.91;5060462;28;19958;-77
2023/10/30 05:01:41;;;;;;;;;;;;;;;7.84;100.00;99730.28;5061458;28;19939;-78
2023/10/30 05:04:27;;;;;;;;;;;;;;;7.83;100.00;99746.16;5060504;28;19929;-79
2023/10/30 05:07:13;;;;;;;;;;;;;;;7.81;100.00;99750.66;5043691;28;20518;-79
2023/10/30 05:09:58;;;;;;;;;;;;;;;7.80;100.00;99741.88;5063064;28;20387;-78
2023/10/30 05:12:44;;;;;;;;;;;;;;;7.79;100.00;99734.09;5060399;28;19933;-79
2023/10/30 05:15:30;;;;;;;;;;;;;;;7.77;100.00;99733.28;5044296;28;20435;-77
2023/10/30 05:18:21;;;;;;;;;;;;;;;7.74;100.00;99740.44;5058837;28;20373;-78
2023/10/30 05:21:06;;;;;;;;;;;;;;;7.72;100.00;99742.31;5056753;28;19998;-79
2023/10/30 05:23:52;;;;;;;;;;;;;;;7.69;100.00;99746.88;5054601;28;20554;-80
2023/10/30 05:26:58;;;;;;;;;;;;;;;7.63;100.00;99752.44;4969818;28;20048;-78
2023/10/30 05:29:44;;;;;;;;;;;;;;;7.60;100.00;99743.78;4976016;28;20023;-79
2023/10/30 05:32:29;;;;;;;;;;;;;;;7.59;100.00;99742.06;5048864;28;19928;-79
2023/10/30 05:35:17;;;;;;;;;;;;;;;7.58;100.00;99743.00;5062580;28;20143;-80
2023/10/30 05:38:05;;;;;;;;;;;;;;;7.57;100.00;99740.47;5056947;28;19956;-79
2023/10/30 05:40:50;;;;;;;;;;;;;;;7.58;100.00;99745.63;5059445;28;19938;-78
2023/10/30 05:43:36;;;;;;;;;;;;;;;7.57;100.00;99743.94;5056362;28;19917;-78
2023/10/30 05:46:22;;;;;;;;;;;;;;;7.58;100.00;99747.44;5057405;28;19924;-78
2023/10/30 05:49:07;;;;;;;;;;;;;;;7.59;100.00;99743.84;5054770;28;19981;-78
2023/10/30 05:51:53;;;;;;;;;;;;;;;7.60;100.00;99759.59;5042674;28;20338;-81
2023/10/30 05:54:39;;;;;;;;;;;;;;;7.58;100.00;99757.97;5055659;28;19932;-79
2023/10/30 05:57:28;;;;;;;;;;;;;;;7.57;100.00;99761.53;5058509;28;19928;-79
2023/10/30 06:00:13;;;;;;;;;;;;;;;7.54;100.00;99770.44;5039725;28;19936;-79
2023/10/30 06:47:39;;;;;;;;;;;;;;;7.51;100.00;99796.91;5036728;28;19932;-78
2023/10/30 06:50:25;;;;;;;;;;;;;;;7.53;100.00;99788.94;5055376;28;19928;-78
2023/10/30 06:53:10;;;;;;;;;;;;;;;7.55;100.00;99809.00;5052531;28;19932;-77
2023/10/30 06:55:56;;;;;;;;;;;;;;;7.57;100.00;99799.25;5056177;28;20021;-78
2023/10/30 06:58:42;;;;;;;;;;;;;;;7.59;100.00;99805.28;5036552;28;20449;-78
2023/10/30 07:01:33;;;;;;;;;;;;;;;7.62;100.00;99804.28;5052674;28;20340;-78
2023/10/30 07:04:20;;;;;;;;;;;;;;;7.64;100.00;99802.44;5035770;28;20387;-79
2023/10/30 07:07:05;;;;;;;;;;;;;;;7.69;100.00;99812.75;5037354;28;19987;-79
2023/10/30 07:09:53;;;;;;;;;;;;;;;7.72;100.00;99810.81;5056309;28;19937;-81
2023/10/30 07:12:41;;;;;;;;;;;;;;;7.76;100.00;99822.03;5027496;28;20153;-78
2023/10/30 07:15:27;;;;;;;;;;;;;;;7.82;100.00;99815.59;5056625;28;20356;-78
2023/10/30 07:18:13;;;;;;;;;;;;;;;7.86;100.00;99822.44;5040826;28;20394;-78
2023/10/30 07:20:58;;;;;;;;;;;;;;;7.89;100.00;99819.63;5053395;28;19933;-78
2023/10/30 07:23:44;;;;;;;;;;;;;;;7.91;100.00;99819.56;5055206;28;19928;-78
2023/10/30 07:26:29;;;;;;;;;;;;;;;7.93;100.00;99822.97;5043105;28;20437;-79
2023/10/30 07:29:17;;;;;;;;;;;;;;;7.96;100.00;99821.03;5050562;28;19928;-79
2023/10/30 07:32:04;;;;;;;;;;;;;;;8.00;100.00;99819.09;5052503;28;20906;-79
2023/10/30 07:34:49;;;;;;;;;;;;;;;8.06;100.00;99826.69;5056421;28;19960;-78
2023/10/30 07:38:05;;;;;;;;;;;;;;;8.12;100.00;99825.53;5055746;28;20237;-77
2023/10/30 07:40:53;;;;;;;;;;;;;;;8.18;100.00;99825.22;5053722;28;19933;-80
2023/10/30 07:44:14;;;;;;;;;;;;;;;8.25;100.00;99829.25;5008925;28;20224;-77
2023/10/30 09:52:29;;;;;;;;;;;;;;;10.71;100.00;99878.97;5062240;28;19931;-80
2023/10/30 09:55:18;;;;;;;;;;;;;;;10.79;100.00;99882.94;5057902;28;20009;-77
2023/10/30 09:58:03;;;;;;;;;;;;;;;10.84;100.00;99886.16;5074992;28;20008;-78
2023/10/30 10:00:49;;;;;;;;;;;;;;;10.88;100.00;99887.66;5078757;28;19925;-77
2023/10/30 10:03:35;;;;;;;;;;;;;;;10.95;100.00;99888.97;5077024;28;20010;-76
2023/10/30 10:06:21;;;;;;;;;;;;;;;10.97;100.00;99892.41;5076403;28;19928;-77
2023/10/30 10:09:07;;;;;;;;;;;;;;;10.99;100.00;99893.16;5060258;28;19934;-77
2023/10/30 10:11:54;;;;;;;;;;;;;;;11.02;100.00;99897.41;5077023;28;20294;-76
2023/10/30 10:14:40;;;;;;;;;;;;;;;11.01;100.00;99890.41;5077653;28;20378;-79
2023/10/30 10:17:28;;;;;;;;;;;;;;;10.98;100.00;99896.75;5058388;28;20394;-76
2023/10/30 10:20:21;;;;;;;;;;;;;;;10.94;100.00;99897.00;5071173;28;20057;-75
2023/10/30 10:23:07;;;;;;;;;;;;;;;10.89;100.00;99894.66;5055136;28;19935;-75
2023/10/30 10:25:56;;;;;;;;;;;;;;;10.89;100.00;99881.41;5058045;28;22101;-77
2023/10/30 10:28:43;;;;;;;;;;;;;;;10.93;100.00;99879.41;5075747;28;20069;-77
2023/10/30 10:31:29;;;;;;;;;;;;;;;10.99;100.00;99876.38;5078155;28;19929;-76
2023/10/30 10:34:15;;;;;;;;;;;;;;;11.05;100.00;99875.19;5078979;28;19924;-77
2023/10/30 10:37:01;;;;;;;;;;;;;;;11.09;100.00;99881.97;5078506;28;20003;-76
2023/10/30 10:39:48;;;;;;;;;;;;;;;11.17;100.00;99877.03;5074940;28;19934;-76
2023/10/30 10:42:34;;;;;;;;;;;;;;;11.21;100.00;99867.94;5070215;28;19966;-75
2023/10/30 10:45:20;;;;;;;;;;;;;;;11.27;100.00;99872.84;5060822;28;20005;-77
2023/10/30 10:48:06;;;;;;;;;;;;;;;11.36;100.00;99865.25;5045805;28;20287;-74
2023/10/30 10:50:53;;;;;;;;;;;;;;;11.44;100.00;99875.38;5052568;28;19936;-74
2023/10/30 10:53:45;;;;;;;;;;;;;;;11.47;100.00;99881.34;5068029;28;19924;-76
2023/10/30 10:56:33;;;;;;;;;;;;;;;11.48;100.00;99876.84;5049725;28;19974;-74
2023/10/30 10:59:19;;;;;;;;;;;;;;;11.45;100.00;99871.78;5053145;28;19924;-74
2023/10/30 11:02:06;;;;;;;;;;;;;;;11.38;100.00;99861.56;5034705;28;20021;-76
2023/10/30 11:04:52;;;;;;;;;;;;;;;11.37;100.00;99865.16;5045788;28;19934;-74
2023/10/30 11:07:50;;;;;;;;;;;;;;;11.35;100.00;99864.44;5065329;28;20061;-74
2023/10/30 11:10:38;;;;;;;;;;;;;;;11.36;100.00;99865.25;5065709;28;20847;-75
2023/10/30 11:13:33;;;;;;;;;;;;;;;11.35;100.00;99861.78;5045864;28;19924;-75
2023/10/30 11:16:37;;;;;;;;;;;;;;;11.37;100.00;99865.16;5067059;28;20371;-75
2023/10/30 11:19:24;;;;;;;;;;;;;;;11.43;100.00;99866.56;5064069;28;20414;-75
2023/10/30 11:22:12;;;;;;;;;;;;;;;11.48;100.00;99855.66;5037945;28;19938;-75
2023/10/30 11:24:58;;;;;;;;;;;;;;;11.52;100.00;99863.34;5046721;28;20373;-75
2023/10/30 11:27:46;;;;;;;;;;;;;;;11.52;100.00;99847.44;5068256;28;20379;-74
2023/10/30 11:30:33;;;;;;;;;;;;;;;11.55;100.00;99849.00;5063591;28;21420;-74
2023/10/30 11:33:20;;;;;;;;;;;;;;;11.54;100.00;99852.59;5051437;28;19939;-77
2023/10/30 11:36:15;;;;;;;;;;;;;;;11.51;100.00;99850.19;5064014;28;19934;-76
2023/10/30 11:39:00;;;;;;;;;;;;;;;11.51;100.00;99848.34;5067470;28;19963;-78
2023/10/30 11:41:49;;;;;;;;;;;;;;;11.52;100.00;99852.72;5065771;28;20388;-73
2023/10/30 11:44:35;;;;;;;;;;;;;;;11.50;100.00;99854.59;5063146;28;19971;-75
2023/10/30 11:47:24;;;;;;;;;;;;;;;11.51;100.00;99851.00;5067415;28;19955;-76
2023/10/30 11:50:09;;;;;;;;;;;;;;;11.52;100.00;99851.88;5046647;28;19959;-75
2023/10/30 11:52:58;;;;;;;;;;;;;;;11.55;100.00;99852.50;5041590;28;19967;-75
2023/10/30 11:55:43;;;;;;;;;;;;;;;11.57;100.00;99851.56;5044952;28;20415;-76
2023/10/30 11:58:29;;;;;;;;;;;;;;;11.55;100.00;99857.81;5039724;28;19944;-74
2023/10/30 12:01:16;;;;;;;;;;;;;;;11.57;100.00;99859.50;5029903;28;20012;-74
2023/10/30 12:04:01;;;;;;;;;;;;;;;11.57;100.00;99848.91;5046148;28;21296;-77
2023/10/30 12:06:48;;;;;;;;;;;;;;;11.58;100.00;99850.59;5046052;28;19939;-76
2023/10/30 12:09:33;;;;;;;;;;;;;;;11.60;100.00;99854.03;5043779;28;19925;-78
2023/10/30 12:12:19;;;;;;;;;;;;;;;11.61;100.00;99856.56;5045515;28;19933;-77
2023/10/30 12:15:05;;;;;;;;;;;;;;;11.60;100.00;99854.84;5042936;28;19981;-76
2023/10/30 12:17:50;;;;;;;;;;;;;;;11.57;100.00;99856.88;5045315;28;19970;-75
2023/10/30 12:20:36;;;;;;;;;;;;;;;11.55;100.00;99863.13;5044482;28;20544;-74
2023/10/30 12:23:22;;;;;;;;;;;;;;;11.53;100.00;99870.34;5043626;28;20671;-74
2023/10/30 12:26:08;;;;;;;;;;;;;;;11.53;100.00;99869.47;5033582;28;19921;-75
2023/10/30 12:29:00;;;;;;;;;;;;;;;11.52;100.00;99879.25;5041101;28;20294;-76
2023/10/30 12:31:49;;;;;;;;;;;;;;;11.55;100.00;99868.41;5029490;28;19936;-75
2023/10/30 12:34:35;;;;;;;;;;;;;;;11.56;100.00;99869.28;5044787;28;19980;-76
2023/10/30 12:37:26;;;;;;;;;;;;;;;11.55;100.00;99855.16;5044806;28;20025;-79
2023/10/30 12:40:12;;;;;;;;;;;;;;;11.55;100.00;99833.97;5047783;28;20379;-78
2023/10/30 12:43:00;;;;;;;;;;;;;;;11.57;100.00;99830.34;5043383;28;20359;-76
2023/10/30 12:45:45;;;;;;;;;;;;;;;11.58;100.00;99821.44;5042437;28;19925;-75
2023/10/30 12:48:31;;;;;;;;;;;;;;;11.59;100.00;99820.53;5048181;28;21198;-76
2023/10/30 12:51:18;;;;;;;;;;;;;;;11.61;100.00;99813.31;5049598;28;19931;-76
2023/10/30 12:54:04;;;;;;;;;;;;;;;11.65;100.00;99809.47;5037833;28;20030;-75
2023/10/30 12:56:50;;;;;;;;;;;;;;;11.68;100.00;99810.13;5038126;28;19933;-74
2023/10/30 12:59:35;;;;;;;;;;;;;;;11.69;100.00;99805.69;5036352;28;19936;-76
2023/10/30 13:02:21;;;;;;;;;;;;;;;11.72;100.00;99804.63;5047608;28;21812;-75
2023/10/30 13:05:07;;;;;;;;;;;;;;;11.74;100.00;99800.94;5048825;28;19920;-77
2023/10/30 13:07:53;;;;;;;;;;;;;;;11.76;100.00;99804.31;5036815;28;19927;-76
2023/10/30 13:10:38;;;;;;;;;;;;;;;11.79;100.00;99806.78;5055219;28;19929;-77
2023/10/30 13:13:24;;;;;;;;;;;;;;;11.81;100.00;99798.72;5052459;28;19924;-75
2023/10/30 13:16:12;;;;;;;;;;;;;;;11.80;100.00;99797.88;5051931;28;20532;-75
2023/10/30 13:18:58;;;;;;;;;;;;;;;11.80;100.00;99802.31;5052969;28;19933;-75
2023/10/30 13:21:44;;;;;;;;;;;;;;;11.78;100.00;99788.31;5054250;28;19924;-75
2023/10/30 13:24:30;;;;;;;;;;;;;;;11.78;100.00;99796.28;5051577;28;20434;-74
2023/10/30 13:27:16;;;;;;;;;;;;;;;11.76;100.00;99793.72;5063642;28;19928;-76
2023/10/30 13:30:04;;;;;;;;;;;;;;;11.76;100.00;99799.03;5052648;28;19936;-75
2023/10/30 13:32:52;;;;;;;;;;;;;;;11.75;100.00;99794.69;5036432;28;20019;-76
2023/10/30 13:35:38;;;;;;;;;;;;;;;11.75;100.00;99799.97;5049827;28;19932;-74
2023/10/30 13:38:24;;;;;;;;;;;;;;;11.75;100.00;99791.16;5063718;28;19924;-75
2023/10/30 13:41:10;;;;;;;;;;;;;;;11.72;100.00;99789.56;5049747;28;20398;-74
2023/10/30 13:43:55;;;;;;;;;;;;;;;11.72;100.00;99789.56;5051538;28;20346;-75
2023/10/30 13:46:41;;;;;;;;;;;;;;;11.72;100.00;99800.16;5035937;28;20379;-75
2023/10/30 13:49:27;;;;;;;;;;;;;;;11.72;100.00;99799.34;5034460;28;19933;-75
2023/10/30 13:52:15;;;;;;;;;;;;;;;11.71;100.00;99798.47;5073833;28;20378;-75
2023/10/30 13:55:01;;;;;;;;;;;;;;;11.72;100.00;99791.38;5077206;28;19959;-75
2023/10/30 13:57:47;;;;;;;;;;;;;;;11.73;100.00;99785.97;5056946;28;19955;-75
2023/10/30 14:00:33;;;;;;;;;;;;;;;11.74;100.00;99784.16;5054624;28;20515;-75
2023/10/30 14:03:23;;;;;;;;;;;;;;;11.72;100.00;99778.97;5074397;28;20033;-75
2023/10/30 14:06:08;;;;;;;;;;;;;;;11.74;100.00;99777.06;5077124;28;20390;-75
2023/10/30 14:09:01;;;;;;;;;;;;;;;11.74;100.00;99770.91;5075824;28;20398;-75
2023/10/30 14:11:46;;;;;;;;;;;;;;;11.72;100.00;99767.53;5057056;28;19924;-75
2023/10/30 14:14:32;;;;;;;;;;;;;;;11.72;100.00;99762.22;5076285;28;19938;-77
2023/10/30 14:17:17;;;;;;;;;;;;;;;11.72;100.00;99767.53;5076609;28;19932;-75
2023/10/30 14:20:04;;;;;;;;;;;;;;;11.71;100.00;99763.16;5060552;28;20411;-76
2023/10/30 14:22:50;;;;;;;;;;;;;;;11.70;100.00;99762.31;5077496;28;19924;-76
2023/10/30 14:25:36;;;;;;;;;;;;;;;11.70;100.00;99764.97;5074288;28;20333;-76
2023/10/30 14:28:21;;;;;;;;;;;;;;;11.69;100.00;99763.28;5056654;28;19994;-77
2023/10/30 14:31:07;;;;;;;;;;;;;;;11.69;100.00;99757.97;5073235;28;20378;-77
2023/10/30 14:33:55;;;;;;;;;;;;;;;11.68;100.00;99753.63;5054337;28;19928;-76
2023/10/30 14:36:44;;;;;;;;;;;;;;;11.68;100.00;99756.28;5053402;28;19930;-76
2023/10/30 14:39:29;;;;;;;;;;;;;;;11.68;100.00;99756.28;5073045;28;19925;-77
2023/10/30 14:42:15;;;;;;;;;;;;;;;11.66;100.00;99758.19;5073975;28;20741;-77
2023/10/30 14:45:00;;;;;;;;;;;;;;;11.64;100.00;99763.59;5075114;28;19932;-77
2023/10/30 14:47:48;;;;;;;;;;;;;;;11.64;100.00;99760.06;5073748;28;19928;-77
2023/10/30 14:50:34;;;;;;;;;;;;;;;11.60;100.00;99759.44;5073603;28;20181;-77
2023/10/30 14:53:20;;;;;;;;;;;;;;;11.58;100.00;99756.03;5073861;28;19934;-76
2023/10/30 14:56:07;;;;;;;;;;;;;;;11.57;100.00;99746.41;5073894;28;19928;-76
2023/10/30 14:58:55;;;;;;;;;;;;;;;11.55;100.00;99745.63;5071084;28;19939;-76
2023/10/30 15:01:41;;;;;;;;;;;;;;;11.53;100.00;99737.81;5072696;28;19928;-76
2023/10/30 15:04:27;;;;;;;;;;;;;;;11.52;100.00;99736.09;5053755;28;20299;-76
2023/10/30 15:07:12;;;;;;;;;;;;;;;11.49;100.00;99733.66;5071608;28;19932;-77
2023/10/30 15:09:58;;;;;;;;;;;;;;;11.49;100.00;99730.16;5069115;28;19932;-76
2023/10/30 15:12:44;;;;;;;;;;;;;;;11.47;100.00;99721.44;5052358;28;19928;-76
2023/10/30 15:15:30;;;;;;;;;;;;;;;11.46;100.00;99725.91;5072359;28;19932;-76
2023/10/30 15:18:15;;;;;;;;;;;;;;;11.42;100.00;99724.41;5071307;28;20077;-76
2023/10/30 15:21:01;;;;;;;;;;;;;;;11.39;100.00;99719.31;5055929;28;19928;-77
2023/10/30 15:23:47;;;;;;;;;;;;;;;11.37;100.00;99722.06;5056558;28;19936;-76
2023/10/30 15:26:32;;;;;;;;;;;;;;;11.35;100.00;99723.13;5073774;28;20684;-76
2023/10/30 15:29:20;;;;;;;;;;;;;;;11.32;100.00;99721.53;5065796;28;19928;-77
2023/10/30 15:32:05;;;;;;;;;;;;;;;11.30;100.00;99715.47;5072356;28;19920;-77
2023/10/30 15:34:51;;;;;;;;;;;;;;;11.28;100.00;99717.41;5073812;28;19932;-77
2023/10/30 15:37:37;;;;;;;;;;;;;;;11.25;100.00;99714.94;5053792;28;20454;-76
2023/10/30 15:40:22;;;;;;;;;;;;;;;11.21;100.00;99722.25;5073682;28;21863;-76
2023/10/30 15:43:08;;;;;;;;;;;;;;;11.19;100.00;99707.38;5072657;28;19936;-77
2023/10/30 15:45:54;;;;;;;;;;;;;;;11.16;100.00;99710.25;5071285;28;19939;-77
2023/10/30 15:48:39;;;;;;;;;;;;;;;11.12;100.00;99707.78;5043119;28;19928;-76
2023/10/30 15:51:27;;;;;;;;;;;;;;;11.10;100.00;99700.91;5072883;28;19934;-77
2023/10/30 15:54:12;;;;;;;;;;;;;;;11.06;100.00;99702.91;5041903;28;20377;-76
2023/10/30 15:56:58;;;;;;;;;;;;;;;11.03;100.00;99700.47;5074205;28;19928;-77
2023/10/30 15:59:44;;;;;;;;;;;;;;;11.03;100.00;99704.91;5074697;28;19982;-77
2023/10/30 16:02:30;;;;;;;;;;;;;;;10.99;100.00;99701.59;5073829;28;19931;-77
2023/10/30 16:05:15;;;;;;;;;;;;;;;10.96;100.00;99707.94;5058116;28;19928;-76
2023/10/30 16:08:01;;;;;;;;;;;;;;;10.94;100.00;99704.56;5074031;28;20356;-77
2023/10/30 16:10:48;;;;;;;;;;;;;;;10.92;100.00;99693.22;5068661;28;19932;-76
2023/10/30 16:13:35;;;;;;;;;;;;;;;10.90;100.00;99697.75;5072413;28;20532;-77
2023/10/30 16:16:21;;;;;;;;;;;;;;;10.87;100.00;99692.66;5066811;28;19928;-78
2023/10/30 16:19:06;;;;;;;;;;;;;;;10.83;100.00;99691.16;5056704;28;19986;-77
2023/10/30 16:21:52;;;;;;;;;;;;;;;10.81;100.00;99695.72;5071334;28;19974;-77
2023/10/30 16:24:38;;;;;;;;;;;;;;;10.80;100.00;99691.38;5052269;28;19928;-77
2023/10/30 16:27:24;;;;;;;;;;;;;;;10.77;100.00;99683.59;5073942;28;19985;-77
2023/10/30 16:30:10;;;;;;;;;;;;;;;10.73;100.00;99675.03;5040467;28;19966;-77
2023/10/30 16:32:56;;;;;;;;;;;;;;;10.69;100.00;99677.00;5069496;28;19929;-78
2023/10/30 16:35:49;;;;;;;;;;;;;;;10.66;100.00;99671.94;5070553;28;20004;-77
2023/10/30 16:38:34;;;;;;;;;;;;;;;10.62;100.00;99670.41;5070596;28;20456;-77
2023/10/30 16:41:20;;;;;;;;;;;;;;;10.59;100.00;99667.97;5055343;28;19941;-76
2023/10/30 16:44:06;;;;;;;;;;;;;;;10.55;100.00;99671.75;5072537;28;19935;-76
2023/10/30 16:46:52;;;;;;;;;;;;;;;10.53;100.00;99674.53;5056187;28;19928;-77
2023/10/30 16:49:40;;;;;;;;;;;;;;;10.49;100.00;99673.00;5059394;28;20007;-76
2023/10/30 16:52:25;;;;;;;;;;;;;;;10.46;100.00;99674.06;5074562;28;19956;-76
2023/10/30 16:55:11;;;;;;;;;;;;;;;10.43;100.00;99668.97;5077534;28;20075;-76
2023/10/30 16:57:57;;;;;;;;;;;;;;;10.41;100.00;99670.81;5062370;28;19928;-77
2023/10/30 17:00:45;;;;;;;;;;;;;;;10.39;100.00;99670.06;5057299;28;20389;-76
2023/10/30 17:03:31;;;;;;;;;;;;;;;10.38;100.00;99665.72;5055656;28;20438;-76
2023/10/30 17:06:17;;;;;;;;;;;;;;;10.37;100.00;99665.81;5061300;28;19932;-75
2023/10/30 17:09:02;;;;;;;;;;;;;;;10.35;100.00;99676.50;5042904;28;19932;-76
2023/10/30 17:11:48;;;;;;;;;;;;;;;10.35;100.00;99671.19;5077629;28;19933;-77